Mao, Dominican Republic
Current Conditions -  °F | °C
As of 11:00 AM on Tuesday 21 Oct 2014 (Local Time) from MDST Reporting Station
Few Clouds Few Clouds  
Wind Chill: 82°   Ceiling: Unl
Heat Index: 88°   Visibility: 6mi
Dew Point: 73°   Wind: 9mph
Humidity: 74%   Direction: 120°ESE
Pressure: 29.97"   Gusts: NA
Location:  19.56°N, 71.08°W
Report Text: MDST 211500Z 12008KT 9999 FEW024 28/23 Q1015 NOSIG
Loading
Personal Weather Stations






























Interactive Weather Map New forecast layout! Learn more

10-Day Weather Forecast

Advertisements
Track Severe Weather on mobile